N505ZG KCRQ-
Flight info
| Callsign | N505ZG |
|---|---|
| Flight time | N/A |
| Altitude | 10000 |
| Route | |
| Aircraft | C208/L-SDFGR/C |
Departure
| Time | 2026-05-05 01:24 |
|---|---|
| Airport | McClellan-Palomar Airport (KCRQ) |
Arrival
| Time | N/A |
|---|---|
| Airport | - |
| Time | Latitude | Longitude | Altitude | Speed | Heading |
|---|---|---|---|---|---|
| 2026-05-05 01:17 | 33.41008 | -116.82966 | 2503 ft | 0 kts | 41° |
| 2026-05-05 01:18 | 33.41179 | -116.82793 | 2446 ft | 64 kts | 37° |
| 2026-05-05 01:18 | 33.41637 | -116.82607 | 2511 ft | 71 kts | 350° |
| 2026-05-05 01:18 | 33.42117 | -116.82654 | 2585 ft | 71 kts | 324° |
| 2026-05-05 01:19 | 33.42482 | -116.82970 | 2736 ft | 66 kts | 303° |
| 2026-05-05 01:19 | 33.42728 | -116.83500 | 2848 ft | 86 kts | 290° |
| 2026-05-05 01:19 | 33.43029 | -116.84205 | 2962 ft | 103 kts | 292° |
| 2026-05-05 01:19 | 33.43296 | -116.84988 | 3203 ft | 104 kts | 283° |
| 2026-05-05 01:20 | 33.43553 | -116.85814 | 3448 ft | 109 kts | 292° |
| 2026-05-05 01:20 | 33.43971 | -116.86543 | 3839 ft | 103 kts | 306° |
| 2026-05-05 01:20 | 33.44233 | -116.87240 | 4230 ft | 91 kts | 257° |
| 2026-05-05 01:20 | 33.43899 | -116.87849 | 4600 ft | 84 kts | 240° |
| 2026-05-05 01:21 | 33.43466 | -116.88302 | 4918 ft | 77 kts | 245° |
| 2026-05-05 01:21 | 33.43462 | -116.88896 | 5003 ft | 80 kts | 278° |
| 2026-05-05 01:21 | 33.43535 | -116.89616 | 5030 ft | 96 kts | 276° |
| 2026-05-05 01:21 | 33.43574 | -116.90486 | 5055 ft | 120 kts | 265° |
| 2026-05-05 01:22 | 33.43445 | -116.91542 | 5086 ft | 128 kts | 264° |
| 2026-05-05 01:22 | 33.43107 | -116.92518 | 5299 ft | 134 kts | 234° |
| 2026-05-05 01:22 | 33.42442 | -116.93294 | 5509 ft | 134 kts | 230° |
| 2026-05-05 01:22 | 33.41762 | -116.94130 | 5524 ft | 145 kts | 232° |
| 2026-05-05 01:23 | 33.41042 | -116.95027 | 5524 ft | 153 kts | 232° |
| 2026-05-05 01:23 | 33.40291 | -116.95955 | 5525 ft | 155 kts | 231° |
| 2026-05-05 01:23 | 33.39532 | -116.96901 | 5527 ft | 161 kts | 231° |
| 2026-05-05 01:23 | 33.38763 | -116.97893 | 5515 ft | 161 kts | 233° |
| 2026-05-05 01:24 | 33.37933 | -116.98776 | 5522 ft | 160 kts | 220° |
| 2026-05-05 01:24 | 33.37003 | -116.99510 | 5521 ft | 158 kts | 219° |
| 2026-05-05 01:24 | 33.36107 | -117.00282 | 5527 ft | 160 kts | 221° |
| 2026-05-05 01:24 | 33.35202 | -117.01080 | 5534 ft | 162 kts | 221° |
| 2026-05-05 01:25 | 33.34289 | -117.01878 | 5527 ft | 162 kts | 221° |
| 2026-05-05 01:25 | 33.33376 | -117.02671 | 5537 ft | 162 kts | 221° |
| 2026-05-05 01:25 | 33.32465 | -117.03468 | 5536 ft | 163 kts | 219° |
| 2026-05-05 01:25 | 33.31554 | -117.04268 | 5536 ft | 162 kts | 220° |
| 2026-05-05 01:26 | 33.30651 | -117.05056 | 5543 ft | 162 kts | 220° |
| 2026-05-05 01:26 | 33.29739 | -117.05855 | 5540 ft | 163 kts | 220° |
| 2026-05-05 01:26 | 33.28759 | -117.06528 | 5530 ft | 165 kts | 198° |
| 2026-05-05 01:26 | 33.27620 | -117.06532 | 5330 ft | 163 kts | 180° |
| 2026-05-05 01:27 | 33.26476 | -117.06471 | 4752 ft | 169 kts | 185° |
| 2026-05-05 01:27 | 33.25307 | -117.06506 | 4222 ft | 157 kts | 187° |
| 2026-05-05 01:27 | 33.24319 | -117.06525 | 3862 ft | 133 kts | 187° |
| 2026-05-05 01:27 | 33.23424 | -117.06537 | 3401 ft | 127 kts | 188° |
| 2026-05-05 01:28 | 33.22612 | -117.06711 | 3075 ft | 108 kts | 232° |
| 2026-05-05 01:28 | 33.22426 | -117.07563 | 2504 ft | 116 kts | 263° |
| 2026-05-05 01:28 | 33.22731 | -117.08354 | 2213 ft | 113 kts | 319° |
| 2026-05-05 01:28 | 33.23348 | -117.08731 | 2069 ft | 89 kts | 331° |
| 2026-05-05 01:29 | 33.23920 | -117.09013 | 1817 ft | 91 kts | 330° |
| 2026-05-05 01:29 | 33.24502 | -117.09275 | 1533 ft | 83 kts | 341° |
| 2026-05-05 01:29 | 33.25057 | -117.09342 | 1275 ft | 81 kts | 349° |
| 2026-05-05 01:29 | 33.25632 | -117.09278 | 1162 ft | 78 kts | 356° |
| 2026-05-05 01:30 | 33.25902 | -117.09249 | 1188 ft | 1 kts | 15° |
| 2026-05-05 01:30 | 33.25845 | -117.09259 | 1181 ft | 17 kts | 194° |
| 2026-05-05 01:30 | 33.25797 | -117.09231 | 1175 ft | 3 kts | 38° |
| 2026-05-05 01:30 | 33.25799 | -117.09230 | 1175 ft | 0 kts | 19° |
| 2026-05-05 01:31 | 33.25754 | -117.09269 | 1171 ft | 23 kts | 182° |
| 2026-05-05 01:31 | 33.25618 | -117.09284 | 1159 ft | 18 kts | 187° |
| 2026-05-05 01:32 | 33.25513 | -117.09285 | 1148 ft | 5 kts | 201° |
| 2026-05-05 01:32 | 33.25519 | -117.09296 | 1148 ft | 2 kts | 27° |
| 2026-05-05 01:32 | 33.25521 | -117.09296 | 1148 ft | 0 kts | 5° |
| 2026-05-05 01:33 | 33.25729 | -117.09271 | 1168 ft | 57 kts | 8° |
| 2026-05-05 01:33 | 33.26230 | -117.09197 | 1287 ft | 81 kts | 355° |
| 2026-05-05 01:33 | 33.26869 | -117.09160 | 1512 ft | 100 kts | 351° |
| 2026-05-05 01:33 | 33.27453 | -117.09555 | 1817 ft | 106 kts | 296° |
| 2026-05-05 01:34 | 33.27545 | -117.10445 | 2134 ft | 114 kts | 259° |
| 2026-05-05 01:34 | 33.27186 | -117.11387 | 2207 ft | 135 kts | 237° |
| 2026-05-05 01:34 | 33.26428 | -117.12116 | 2298 ft | 149 kts | 199° |
| 2026-05-05 01:34 | 33.25395 | -117.11937 | 2483 ft | 156 kts | 152° |
| 2026-05-05 01:35 | 33.24715 | -117.10979 | 2727 ft | 148 kts | 126° |
| 2026-05-05 01:35 | 33.24165 | -117.09958 | 2979 ft | 146 kts | 128° |
| 2026-05-05 01:35 | 33.23595 | -117.08954 | 3227 ft | 146 kts | 127° |
| 2026-05-05 01:35 | 33.23025 | -117.07949 | 3466 ft | 144 kts | 128° |
| 2026-05-05 01:36 | 33.22466 | -117.06963 | 3713 ft | 143 kts | 128° |
| 2026-05-05 01:36 | 33.21918 | -117.05995 | 3952 ft | 142 kts | 129° |
| 2026-05-05 01:36 | 33.21351 | -117.05003 | 4107 ft | 147 kts | 129° |
| 2026-05-05 01:36 | 33.20701 | -117.04033 | 3933 ft | 155 kts | 134° |
| 2026-05-05 01:37 | 33.19987 | -117.03049 | 3668 ft | 155 kts | 135° |
| 2026-05-05 01:37 | 33.19282 | -117.02082 | 3339 ft | 153 kts | 139° |
| 2026-05-05 01:37 | 33.18533 | -117.01204 | 2890 ft | 147 kts | 145° |
| 2026-05-05 01:37 | 33.17719 | -117.00516 | 2455 ft | 144 kts | 146° |
| 2026-05-05 01:38 | 33.17245 | -116.99488 | 2073 ft | 144 kts | 81° |
| 2026-05-05 01:38 | 33.17744 | -116.98673 | 2203 ft | 110 kts | 0° |
| 2026-05-05 01:38 | 33.18165 | -116.99203 | 2080 ft | 104 kts | 253° |
| 2026-05-05 01:38 | 33.17826 | -116.99901 | 1757 ft | 80 kts | 236° |
| 2026-05-05 01:39 | 33.17510 | -117.00285 | 1660 ft | 35 kts | 225° |
| 2026-05-05 01:39 | 33.17451 | -117.00374 | 1656 ft | 4 kts | 0° |
| 2026-05-05 01:39 | 33.17481 | -117.00363 | 1657 ft | 0 kts | 39° |
| 2026-05-05 01:39 | 33.17489 | -117.00329 | 1659 ft | 18 kts | 72° |
| 2026-05-05 01:40 | 33.17611 | -117.00167 | 1665 ft | 24 kts | 59° |
| 2026-05-05 01:40 | 33.17709 | -117.00079 | 1668 ft | 18 kts | 352° |
| 2026-05-05 01:40 | 33.17734 | -117.00029 | 1675 ft | 11 kts | 128° |
| 2026-05-05 01:40 | 33.17722 | -117.00028 | 1671 ft | 0 kts | 229° |
| 2026-05-05 01:41 | 33.17594 | -117.00183 | 1665 ft | 63 kts | 224° |
| 2026-05-05 01:41 | 33.17211 | -117.00644 | 1943 ft | 87 kts | 229° |
| 2026-05-05 01:41 | 33.16684 | -117.01182 | 2337 ft | 105 kts | 220° |
| 2026-05-05 01:42 | 33.16087 | -117.01724 | 2792 ft | 108 kts | 227° |
| 2026-05-05 01:42 | 33.15750 | -117.02552 | 3074 ft | 118 kts | 258° |
| 2026-05-05 01:42 | 33.15571 | -117.03550 | 3261 ft | 129 kts | 256° |
| 2026-05-05 01:42 | 33.15333 | -117.04608 | 3434 ft | 130 kts | 259° |
| 2026-05-05 01:43 | 33.15310 | -117.05658 | 3783 ft | 127 kts | 273° |
| 2026-05-05 01:43 | 33.15298 | -117.06739 | 3961 ft | 133 kts | 264° |
| 2026-05-05 01:43 | 33.15211 | -117.07884 | 3927 ft | 141 kts | 264° |
| 2026-05-05 01:43 | 33.15066 | -117.09053 | 3705 ft | 148 kts | 261° |
| 2026-05-05 01:44 | 33.14972 | -117.10222 | 3356 ft | 138 kts | 265° |
| 2026-05-05 01:44 | 33.14850 | -117.11346 | 2955 ft | 134 kts | 260° |
| 2026-05-05 01:44 | 33.14728 | -117.12413 | 2670 ft | 129 kts | 265° |
| 2026-05-05 01:44 | 33.14669 | -117.13446 | 2504 ft | 121 kts | 264° |
| 2026-05-05 01:45 | 33.14545 | -117.14390 | 2442 ft | 112 kts | 261° |
| 2026-05-05 01:45 | 33.14481 | -117.15369 | 2365 ft | 122 kts | 275° |
| 2026-05-05 01:45 | 33.14583 | -117.16397 | 2298 ft | 126 kts | 275° |
| 2026-05-05 01:45 | 33.14600 | -117.17440 | 2212 ft | 122 kts | 263° |
| 2026-05-05 01:46 | 33.14446 | -117.18394 | 2153 ft | 115 kts | 257° |
| 2026-05-05 01:46 | 33.14257 | -117.19312 | 2106 ft | 111 kts | 259° |
| 2026-05-05 01:46 | 33.14123 | -117.20209 | 1970 ft | 112 kts | 258° |
| 2026-05-05 01:46 | 33.13965 | -117.21149 | 1747 ft | 117 kts | 259° |
| 2026-05-05 01:47 | 33.13800 | -117.22112 | 1595 ft | 119 kts | 259° |
| 2026-05-05 01:47 | 33.13666 | -117.23035 | 1341 ft | 103 kts | 259° |
| 2026-05-05 01:47 | 33.13511 | -117.23810 | 1158 ft | 91 kts | 258° |
| 2026-05-05 01:47 | 33.13372 | -117.24559 | 900 ft | 95 kts | 256° |
| 2026-05-05 01:48 | 33.13257 | -117.25348 | 725 ft | 97 kts | 261° |
| 2026-05-05 01:48 | 33.13129 | -117.26106 | 599 ft | 85 kts | 261° |
| 2026-05-05 01:48 | 33.13031 | -117.26741 | 463 ft | 71 kts | 257° |
| 2026-05-05 01:48 | 33.12936 | -117.27325 | 363 ft | 74 kts | 258° |
| 2026-05-05 01:49 | 33.12847 | -117.27874 | 332 ft | 45 kts | 259° |
| 2026-05-05 01:49 | 33.12810 | -117.28107 | 328 ft | 19 kts | 257° |
| 2026-05-05 01:49 | 33.12782 | -117.28210 | 333 ft | 14 kts | 240° |
| 2026-05-05 01:49 | 33.12738 | -117.28269 | 331 ft | 5 kts | 203° |
| 2026-05-05 01:50 | 33.12720 | -117.28265 | 329 ft | 10 kts | 146° |
| 2026-05-05 01:50 | 33.12727 | -117.28113 | 329 ft | 28 kts | 79° |
| 2026-05-05 01:50 | 33.12684 | -117.28078 | 330 ft | 5 kts | 277° |
| 2026-05-05 01:50 | 33.12684 | -117.28080 | 330 ft | 0 kts | 264° |